sensor_id;sensor_type;location;lat;lon;timestamp;P1;durP1;ratioP1;P2;durP2;ratioP2
38785;SDS011;24535;45.508;12.252;2022-12-16T02:23:32;4.75;;;4.35;;
38785;SDS011;24535;45.508;12.252;2022-12-16T04:50:46;11.32;;;9.98;;
38785;SDS011;24535;45.508;12.252;2022-12-16T05:07:05;13.48;;;12.13;;
38785;SDS011;24535;45.508;12.252;2022-12-16T05:10:15;14.23;;;12.73;;
38785;SDS011;24535;45.508;12.252;2022-12-16T05:13:10;14.60;;;11.77;;
38785;SDS011;24535;45.508;12.252;2022-12-16T05:15:54;14.50;;;12.30;;
38785;SDS011;24535;45.508;12.252;2022-12-16T05:21:47;13.65;;;12.23;;
38785;SDS011;24535;45.508;12.252;2022-12-16T05:34:51;19.17;;;17.17;;
38785;SDS011;24535;45.508;12.252;2022-12-16T05:37:42;14.82;;;12.73;;
38785;SDS011;24535;45.508;12.252;2022-12-16T05:40:46;17.35;;;15.52;;
38785;SDS011;24535;45.508;12.252;2022-12-16T05:43:30;15.70;;;13.60;;
38785;SDS011;24535;45.508;12.252;2022-12-16T05:46:19;15.88;;;13.23;;
38785;SDS011;24535;45.508;12.252;2022-12-16T05:49:24;14.55;;;12.68;;
38785;SDS011;24535;45.508;12.252;2022-12-16T05:55:13;18.40;;;16.45;;
38785;SDS011;24535;45.508;12.252;2022-12-16T05:58:15;20.23;;;17.67;;
38785;SDS011;24535;45.508;12.252;2022-12-16T06:01:14;17.20;;;14.77;;
38785;SDS011;24535;45.508;12.252;2022-12-16T06:04:02;15.10;;;13.48;;
38785;SDS011;24535;45.508;12.252;2022-12-16T06:06:52;22.05;;;19.83;;
38785;SDS011;24535;45.508;12.252;2022-12-16T06:13:04;14.25;;;12.55;;
38785;SDS011;24535;45.508;12.252;2022-12-16T06:15:48;13.90;;;12.50;;
38785;SDS011;24535;45.508;12.252;2022-12-16T06:18:33;16.63;;;13.95;;
38785;SDS011;24535;45.508;12.252;2022-12-16T06:21:18;15.35;;;13.05;;
38785;SDS011;24535;45.508;12.252;2022-12-16T06:24:03;15.05;;;13.45;;
38785;SDS011;24535;45.508;12.252;2022-12-16T06:26:49;17.85;;;15.70;;
38785;SDS011;24535;45.508;12.252;2022-12-16T06:29:36;18.88;;;14.95;;
38785;SDS011;24535;45.508;12.252;2022-12-16T06:32:26;16.38;;;14.73;;
38785;SDS011;24535;45.508;12.252;2022-12-16T06:35:13;13.90;;;11.90;;
38785;SDS011;24535;45.508;12.252;2022-12-16T06:37:57;17.00;;;12.98;;
38785;SDS011;24535;45.508;12.252;2022-12-16T06:40:41;13.90;;;12.05;;
38785;SDS011;24535;45.508;12.252;2022-12-16T06:43:27;17.48;;;13.65;;
38785;SDS011;24535;45.508;12.252;2022-12-16T06:46:11;15.23;;;13.43;;
38785;SDS011;24535;45.508;12.252;2022-12-16T06:48:55;18.63;;;15.35;;
38785;SDS011;24535;45.508;12.252;2022-12-16T06:51:39;17.08;;;15.32;;
38785;SDS011;24535;45.508;12.252;2022-12-16T06:54:23;15.93;;;14.07;;
38785;SDS011;24535;45.508;12.252;2022-12-16T06:57:07;16.48;;;13.77;;
38785;SDS011;24535;45.508;12.252;2022-12-16T06:59:51;18.27;;;16.17;;
38785;SDS011;24535;45.508;12.252;2022-12-16T07:02:35;15.57;;;13.85;;
38785;SDS011;24535;45.508;12.252;2022-12-16T07:08:29;18.85;;;15.32;;
38785;SDS011;24535;45.508;12.252;2022-12-16T07:11:13;14.95;;;13.43;;
38785;SDS011;24535;45.508;12.252;2022-12-16T07:13:57;19.15;;;14.48;;
38785;SDS011;24535;45.508;12.252;2022-12-16T07:16:54;20.42;;;16.83;;
38785;SDS011;24535;45.508;12.252;2022-12-16T07:19:39;20.55;;;17.17;;
38785;SDS011;24535;45.508;12.252;2022-12-16T07:22:43;15.52;;;13.52;;
38785;SDS011;24535;45.508;12.252;2022-12-16T07:25:28;15.48;;;13.60;;
38785;SDS011;24535;45.508;12.252;2022-12-16T07:28:12;20.20;;;17.63;;
38785;SDS011;24535;45.508;12.252;2022-12-16T07:30:56;20.27;;;18.17;;
38785;SDS011;24535;45.508;12.252;2022-12-16T07:33:40;21.92;;;18.15;;
38785;SDS011;24535;45.508;12.252;2022-12-16T07:36:24;24.50;;;19.90;;
38785;SDS011;24535;45.508;12.252;2022-12-16T07:39:08;25.17;;;21.17;;
38785;SDS011;24535;45.508;12.252;2022-12-16T07:41:52;24.75;;;20.85;;
38785;SDS011;24535;45.508;12.252;2022-12-16T07:44:36;25.17;;;20.15;;
38785;SDS011;24535;45.508;12.252;2022-12-16T07:47:20;20.00;;;17.55;;
38785;SDS011;24535;45.508;12.252;2022-12-16T07:50:04;17.33;;;15.18;;
38785;SDS011;24535;45.508;12.252;2022-12-16T07:52:55;15.73;;;11.90;;
38785;SDS011;24535;45.508;12.252;2022-12-16T07:55:40;18.27;;;14.48;;
38785;SDS011;24535;45.508;12.252;2022-12-16T07:58:24;20.25;;;18.10;;
38785;SDS011;24535;45.508;12.252;2022-12-16T08:01:08;21.25;;;18.02;;
38785;SDS011;24535;45.508;12.252;2022-12-16T08:03:53;22.65;;;17.40;;
38785;SDS011;24535;45.508;12.252;2022-12-16T08:06:37;18.52;;;13.63;;
38785;SDS011;24535;45.508;12.252;2022-12-16T08:09:21;15.18;;;13.63;;
38785;SDS011;24535;45.508;12.252;2022-12-16T08:12:05;18.83;;;16.13;;
38785;SDS011;24535;45.508;12.252;2022-12-16T08:14:49;15.70;;;14.20;;
38785;SDS011;24535;45.508;12.252;2022-12-16T08:17:34;16.33;;;13.85;;
38785;SDS011;24535;45.508;12.252;2022-12-16T08:20:18;16.63;;;13.82;;
38785;SDS011;24535;45.508;12.252;2022-12-16T08:23:02;16.38;;;14.07;;
38785;SDS011;24535;45.508;12.252;2022-12-16T08:25:46;15.75;;;14.10;;
38785;SDS011;24535;45.508;12.252;2022-12-16T08:28:30;18.92;;;16.63;;
38785;SDS011;24535;45.508;12.252;2022-12-16T08:31:15;17.27;;;14.20;;
38785;SDS011;24535;45.508;12.252;2022-12-16T08:33:59;15.90;;;14.13;;
38785;SDS011;24535;45.508;12.252;2022-12-16T08:36:43;21.70;;;17.67;;
38785;SDS011;24535;45.508;12.252;2022-12-16T08:39:27;25.05;;;17.90;;
38785;SDS011;24535;45.508;12.252;2022-12-16T08:42:11;19.73;;;15.88;;
38785;SDS011;24535;45.508;12.252;2022-12-16T08:44:55;17.60;;;14.82;;
38785;SDS011;24535;45.508;12.252;2022-12-16T08:47:38;24.98;;;21.70;;
38785;SDS011;24535;45.508;12.252;2022-12-16T08:50:23;25.10;;;21.23;;
38785;SDS011;24535;45.508;12.252;2022-12-16T08:53:06;31.13;;;23.48;;
38785;SDS011;24535;45.508;12.252;2022-12-16T08:55:51;20.35;;;18.23;;
38785;SDS011;24535;45.508;12.252;2022-12-16T08:58:41;18.02;;;15.20;;
38785;SDS011;24535;45.508;12.252;2022-12-16T09:01:25;24.70;;;21.10;;
38785;SDS011;24535;45.508;12.252;2022-12-16T09:04:09;19.85;;;17.30;;
38785;SDS011;24535;45.508;12.252;2022-12-16T09:06:53;17.55;;;15.68;;
38785;SDS011;24535;45.508;12.252;2022-12-16T09:09:41;20.23;;;16.75;;
38785;SDS011;24535;45.508;12.252;2022-12-16T09:12:25;21.10;;;18.17;;
38785;SDS011;24535;45.508;12.252;2022-12-16T09:15:15;21.02;;;17.38;;
38785;SDS011;24535;45.508;12.252;2022-12-16T09:17:59;22.27;;;18.35;;
38785;SDS011;24535;45.508;12.252;2022-12-16T09:20:43;18.25;;;16.35;;
38785;SDS011;24535;45.508;12.252;2022-12-16T09:23:27;15.50;;;12.82;;
38785;SDS011;24535;45.508;12.252;2022-12-16T09:26:11;16.38;;;14.30;;
38785;SDS011;24535;45.508;12.252;2022-12-16T09:28:55;13.85;;;12.40;;
38785;SDS011;24535;45.508;12.252;2022-12-16T09:31:39;15.50;;;13.38;;
38785;SDS011;24535;45.508;12.252;2022-12-16T09:34:23;15.65;;;13.52;;
38785;SDS011;24535;45.508;12.252;2022-12-16T09:37:07;14.30;;;12.50;;
38785;SDS011;24535;45.508;12.252;2022-12-16T09:39:51;14.40;;;12.77;;
38785;SDS011;24535;45.508;12.252;2022-12-16T09:46:05;19.40;;;16.08;;
38785;SDS011;24535;45.508;12.252;2022-12-16T09:49:13;22.67;;;18.48;;
38785;SDS011;24535;45.508;12.252;2022-12-16T09:52:38;22.15;;;16.63;;
38785;SDS011;24535;45.508;12.252;2022-12-16T09:55:38;19.67;;;14.55;;
38785;SDS011;24535;45.508;12.252;2022-12-16T10:01:44;32.42;;;21.55;;
38785;SDS011;24535;45.508;12.252;2022-12-16T10:04:29;41.50;;;26.40;;
38785;SDS011;24535;45.508;12.252;2022-12-16T10:07:19;35.92;;;23.75;;
38785;SDS011;24535;45.508;12.252;2022-12-16T10:10:16;23.02;;;17.45;;
38785;SDS011;24535;45.508;12.252;2022-12-16T10:16:28;24.98;;;17.38;;
38785;SDS011;24535;45.508;12.252;2022-12-16T10:19:19;30.65;;;22.30;;
38785;SDS011;24535;45.508;12.252;2022-12-16T10:22:36;32.50;;;23.13;;
38785;SDS011;24535;45.508;12.252;2022-12-16T10:25:27;24.15;;;17.85;;
38785;SDS011;24535;45.508;12.252;2022-12-16T10:31:04;27.10;;;18.85;;
38785;SDS011;24535;45.508;12.252;2022-12-16T10:34:25;23.05;;;18.30;;
38785;SDS011;24535;45.508;12.252;2022-12-16T10:37:15;28.17;;;20.60;;
38785;SDS011;24535;45.508;12.252;2022-12-16T10:40:04;34.33;;;24.33;;
38785;SDS011;24535;45.508;12.252;2022-12-16T10:42:55;27.10;;;19.73;;
38785;SDS011;24535;45.508;12.252;2022-12-16T10:45:46;23.05;;;17.77;;
38785;SDS011;24535;45.508;12.252;2022-12-16T10:48:34;25.98;;;18.67;;
38785;SDS011;24535;45.508;12.252;2022-12-16T10:51:22;29.83;;;21.50;;
38785;SDS011;24535;45.508;12.252;2022-12-16T11:00:49;27.85;;;20.73;;
38785;SDS011;24535;45.508;12.252;2022-12-16T11:03:35;30.35;;;21.17;;
38785;SDS011;24535;45.508;12.252;2022-12-16T11:06:35;24.95;;;18.10;;
38785;SDS011;24535;45.508;12.252;2022-12-16T11:12:16;27.02;;;18.88;;
38785;SDS011;24535;45.508;12.252;2022-12-16T11:15:16;33.72;;;23.17;;
38785;SDS011;24535;45.508;12.252;2022-12-16T11:18:13;27.65;;;18.85;;
38785;SDS011;24535;45.508;12.252;2022-12-16T11:24:34;28.55;;;18.15;;
38785;SDS011;24535;45.508;12.252;2022-12-16T11:27:10;33.33;;;22.38;;
38785;SDS011;24535;45.508;12.252;2022-12-16T11:29:58;32.65;;;23.30;;
38785;SDS011;24535;45.508;12.252;2022-12-16T11:32:45;35.85;;;24.52;;
38785;SDS011;24535;45.508;12.252;2022-12-16T11:35:33;23.50;;;18.73;;
38785;SDS011;24535;45.508;12.252;2022-12-16T11:38:23;25.70;;;19.85;;
38785;SDS011;24535;45.508;12.252;2022-12-16T11:41:31;26.45;;;18.65;;
38785;SDS011;24535;45.508;12.252;2022-12-16T11:44:24;32.28;;;21.95;;
38785;SDS011;24535;45.508;12.252;2022-12-16T11:50:15;30.80;;;21.70;;
38785;SDS011;24535;45.508;12.252;2022-12-16T11:53:05;23.60;;;17.70;;
38785;SDS011;24535;45.508;12.252;2022-12-16T11:56:17;25.52;;;18.55;;
38785;SDS011;24535;45.508;12.252;2022-12-16T12:11:07;23.13;;;17.77;;
38785;SDS011;24535;45.508;12.252;2022-12-16T12:17:29;36.70;;;25.50;;
38785;SDS011;24535;45.508;12.252;2022-12-16T12:27:01;29.70;;;19.52;;
38785;SDS011;24535;45.508;12.252;2022-12-16T12:29:55;21.02;;;16.33;;
38785;SDS011;24535;45.508;12.252;2022-12-16T12:43:06;30.83;;;23.63;;
38785;SDS011;24535;45.508;12.252;2022-12-16T12:49:35;27.33;;;20.45;;
38785;SDS011;24535;45.508;12.252;2022-12-16T12:59:00;27.73;;;20.10;;
38785;SDS011;24535;45.508;12.252;2022-12-16T13:01:48;29.65;;;22.08;;
38785;SDS011;24535;45.508;12.252;2022-12-16T13:04:35;31.90;;;22.55;;
38785;SDS011;24535;45.508;12.252;2022-12-16T13:07:21;37.55;;;24.60;;
38785;SDS011;24535;45.508;12.252;2022-12-16T13:15:59;29.73;;;24.13;;
38785;SDS011;24535;45.508;12.252;2022-12-16T13:18:46;33.33;;;26.08;;
38785;SDS011;24535;45.508;12.252;2022-12-16T13:31:03;31.05;;;21.90;;
38785;SDS011;24535;45.508;12.252;2022-12-16T13:37:17;36.20;;;24.98;;
38785;SDS011;24535;45.508;12.252;2022-12-16T13:43:02;36.80;;;26.15;;
38785;SDS011;24535;45.508;12.252;2022-12-16T13:56:00;50.30;;;33.47;;
38785;SDS011;24535;45.508;12.252;2022-12-16T13:59:19;36.13;;;25.10;;
38785;SDS011;24535;45.508;12.252;2022-12-16T14:05:21;61.65;;;39.88;;
38785;SDS011;24535;45.508;12.252;2022-12-16T14:08:53;50.70;;;35.00;;
38785;SDS011;24535;45.508;12.252;2022-12-16T14:14:18;47.85;;;31.55;;
38785;SDS011;24535;45.508;12.252;2022-12-16T14:17:29;58.20;;;37.92;;
38785;SDS011;24535;45.508;12.252;2022-12-16T14:20:21;34.90;;;26.65;;
38785;SDS011;24535;45.508;12.252;2022-12-16T14:26:14;62.00;;;38.85;;
38785;SDS011;24535;45.508;12.252;2022-12-16T14:28:59;40.50;;;29.55;;
38785;SDS011;24535;45.508;12.252;2022-12-16T14:31:44;45.25;;;32.10;;
38785;SDS011;24535;45.508;12.252;2022-12-16T14:34:29;44.15;;;32.95;;
38785;SDS011;24535;45.508;12.252;2022-12-16T14:37:16;72.53;;;44.42;;
38785;SDS011;24535;45.508;12.252;2022-12-16T14:43:12;64.25;;;42.17;;
38785;SDS011;24535;45.508;12.252;2022-12-16T14:46:02;47.28;;;31.48;;
38785;SDS011;24535;45.508;12.252;2022-12-16T14:48:47;55.85;;;36.30;;
38785;SDS011;24535;45.508;12.252;2022-12-16T14:51:44;60.88;;;39.40;;
38785;SDS011;24535;45.508;12.252;2022-12-16T14:54:41;48.53;;;32.38;;
38785;SDS011;24535;45.508;12.252;2022-12-16T14:57:29;52.97;;;39.33;;
38785;SDS011;24535;45.508;12.252;2022-12-16T15:00:19;44.55;;;32.03;;
38785;SDS011;24535;45.508;12.252;2022-12-16T15:06:53;44.67;;;32.35;;
38785;SDS011;24535;45.508;12.252;2022-12-16T15:09:39;52.00;;;35.95;;
38785;SDS011;24535;45.508;12.252;2022-12-16T15:12:30;39.00;;;30.88;;
38785;SDS011;24535;45.508;12.252;2022-12-16T15:15:32;42.55;;;32.28;;
38785;SDS011;24535;45.508;12.252;2022-12-16T16:22:14;46.33;;;34.83;;
38785;SDS011;24535;45.508;12.252;2022-12-16T17:06:19;63.97;;;38.92;;
38785;SDS011;24535;45.508;12.252;2022-12-16T19:34:37;55.97;;;43.83;;
38785;SDS011;24535;45.508;12.252;2022-12-16T19:38:08;57.08;;;44.55;;
38785;SDS011;24535;45.508;12.252;2022-12-16T19:47:01;60.85;;;47.60;;
38785;SDS011;24535;45.508;12.252;2022-12-16T21:50:51;57.45;;;42.92;;
38785;SDS011;24535;45.508;12.252;2022-12-16T22:01:58;54.88;;;41.92;;
38785;SDS011;24535;45.508;12.252;2022-12-16T22:07:27;56.70;;;39.13;;
38785;SDS011;24535;45.508;12.252;2022-12-16T22:31:04;57.60;;;39.45;;
38785;SDS011;24535;45.508;12.252;2022-12-16T23:39:51;47.55;;;35.40;;
38785;SDS011;24535;45.508;12.252;2022-12-16T23:51:37;56.08;;;37.17;;
38785;SDS011;24535;45.508;12.252;2022-12-16T23:57:30;54.72;;;35.08;;
